sensor_id;sensor_type;location;lat;lon;timestamp;P1;durP1;ratioP1;P2;durP2;ratioP2
35612;SDS011;22054;51.646;7.078;2022-11-15T00:01:38;23.40;;;20.42;;
35612;SDS011;22054;51.646;7.078;2022-11-15T00:04:04;22.08;;;19.92;;
35612;SDS011;22054;51.646;7.078;2022-11-15T00:06:30;21.88;;;19.67;;
35612;SDS011;22054;51.646;7.078;2022-11-15T00:08:59;22.60;;;20.33;;
35612;SDS011;22054;51.646;7.078;2022-11-15T00:11:26;22.35;;;20.08;;
35612;SDS011;22054;51.646;7.078;2022-11-15T00:13:55;22.23;;;20.25;;
35612;SDS011;22054;51.646;7.078;2022-11-15T00:16:22;21.65;;;19.48;;
35612;SDS011;22054;51.646;7.078;2022-11-15T00:18:48;20.20;;;18.20;;
35612;SDS011;22054;51.646;7.078;2022-11-15T00:21:15;21.42;;;19.30;;
35612;SDS011;22054;51.646;7.078;2022-11-15T00:23:42;20.38;;;18.42;;
35612;SDS011;22054;51.646;7.078;2022-11-15T00:26:11;22.70;;;19.70;;
35612;SDS011;22054;51.646;7.078;2022-11-15T00:28:39;26.08;;;20.02;;
35612;SDS011;22054;51.646;7.078;2022-11-15T00:31:09;21.75;;;19.42;;
35612;SDS011;22054;51.646;7.078;2022-11-15T00:33:38;23.27;;;19.52;;
35612;SDS011;22054;51.646;7.078;2022-11-15T00:36:04;21.50;;;19.40;;
35612;SDS011;22054;51.646;7.078;2022-11-15T00:38:34;22.73;;;20.38;;
35612;SDS011;22054;51.646;7.078;2022-11-15T00:41:02;21.45;;;18.92;;
35612;SDS011;22054;51.646;7.078;2022-11-15T00:43:30;23.08;;;19.60;;
35612;SDS011;22054;51.646;7.078;2022-11-15T00:45:56;20.67;;;18.52;;
35612;SDS011;22054;51.646;7.078;2022-11-15T00:48:22;19.08;;;17.20;;
35612;SDS011;22054;51.646;7.078;2022-11-15T00:50:48;21.70;;;19.38;;
35612;SDS011;22054;51.646;7.078;2022-11-15T00:53:14;20.80;;;18.70;;
35612;SDS011;22054;51.646;7.078;2022-11-15T00:55:41;20.73;;;18.77;;
35612;SDS011;22054;51.646;7.078;2022-11-15T00:58:06;20.13;;;18.00;;
35612;SDS011;22054;51.646;7.078;2022-11-15T01:00:32;21.05;;;18.88;;
35612;SDS011;22054;51.646;7.078;2022-11-15T01:02:59;20.98;;;18.85;;
35612;SDS011;22054;51.646;7.078;2022-11-15T01:05:26;21.63;;;19.38;;
35612;SDS011;22054;51.646;7.078;2022-11-15T01:07:56;21.95;;;18.75;;
35612;SDS011;22054;51.646;7.078;2022-11-15T01:10:22;21.30;;;19.10;;
35612;SDS011;22054;51.646;7.078;2022-11-15T01:12:49;20.75;;;18.73;;
35612;SDS011;22054;51.646;7.078;2022-11-15T01:15:15;25.70;;;20.67;;
35612;SDS011;22054;51.646;7.078;2022-11-15T01:17:41;21.20;;;19.20;;
35612;SDS011;22054;51.646;7.078;2022-11-15T01:20:07;20.67;;;18.50;;
35612;SDS011;22054;51.646;7.078;2022-11-15T01:22:33;21.33;;;19.17;;
35612;SDS011;22054;51.646;7.078;2022-11-15T01:24:59;21.38;;;19.05;;
35612;SDS011;22054;51.646;7.078;2022-11-15T01:27:24;21.27;;;19.02;;
35612;SDS011;22054;51.646;7.078;2022-11-15T01:29:50;24.55;;;20.42;;
35612;SDS011;22054;51.646;7.078;2022-11-15T01:32:16;21.98;;;19.67;;
35612;SDS011;22054;51.646;7.078;2022-11-15T01:34:41;21.20;;;19.15;;
35612;SDS011;22054;51.646;7.078;2022-11-15T01:37:08;19.13;;;17.13;;
35612;SDS011;22054;51.646;7.078;2022-11-15T01:39:33;22.10;;;18.23;;
35612;SDS011;22054;51.646;7.078;2022-11-15T01:41:59;20.83;;;18.63;;
35612;SDS011;22054;51.646;7.078;2022-11-15T01:47:01;19.55;;;17.55;;
35612;SDS011;22054;51.646;7.078;2022-11-15T01:49:32;19.77;;;17.85;;
35612;SDS011;22054;51.646;7.078;2022-11-15T01:52:01;19.10;;;17.25;;
35612;SDS011;22054;51.646;7.078;2022-11-15T01:54:30;20.38;;;18.33;;
35612;SDS011;22054;51.646;7.078;2022-11-15T01:56:59;19.65;;;17.80;;
35612;SDS011;22054;51.646;7.078;2022-11-15T01:59:29;18.80;;;17.00;;
35612;SDS011;22054;51.646;7.078;2022-11-15T02:01:55;18.38;;;16.75;;
35612;SDS011;22054;51.646;7.078;2022-11-15T02:04:38;18.30;;;16.60;;
35612;SDS011;22054;51.646;7.078;2022-11-15T02:07:11;17.50;;;15.90;;
35612;SDS011;22054;51.646;7.078;2022-11-15T02:09:41;18.95;;;16.30;;
35612;SDS011;22054;51.646;7.078;2022-11-15T02:12:08;19.20;;;17.30;;
35612;SDS011;22054;51.646;7.078;2022-11-15T02:14:38;19.85;;;16.67;;
35612;SDS011;22054;51.646;7.078;2022-11-15T02:17:22;18.00;;;16.20;;
35612;SDS011;22054;51.646;7.078;2022-11-15T02:23:27;17.52;;;15.00;;
35612;SDS011;22054;51.646;7.078;2022-11-15T02:26:35;17.23;;;15.63;;
35612;SDS011;22054;51.646;7.078;2022-11-15T02:29:39;17.42;;;15.75;;
35612;SDS011;22054;51.646;7.078;2022-11-15T02:32:33;18.55;;;15.80;;
35612;SDS011;22054;51.646;7.078;2022-11-15T02:35:57;16.38;;;14.75;;
35612;SDS011;22054;51.646;7.078;2022-11-15T02:38:34;17.08;;;15.40;;
35612;SDS011;22054;51.646;7.078;2022-11-15T02:41:24;16.92;;;15.23;;
35612;SDS011;22054;51.646;7.078;2022-11-15T02:44:04;17.50;;;15.77;;
35612;SDS011;22054;51.646;7.078;2022-11-15T02:46:40;18.58;;;16.55;;
35612;SDS011;22054;51.646;7.078;2022-11-15T02:49:31;20.40;;;16.27;;
35612;SDS011;22054;51.646;7.078;2022-11-15T02:51:59;17.63;;;15.98;;
35612;SDS011;22054;51.646;7.078;2022-11-15T02:54:28;16.77;;;15.07;;
35612;SDS011;22054;51.646;7.078;2022-11-15T02:56:59;16.17;;;14.52;;
35612;SDS011;22054;51.646;7.078;2022-11-15T02:59:40;17.50;;;15.95;;
35612;SDS011;22054;51.646;7.078;2022-11-15T03:02:28;17.45;;;15.63;;
35612;SDS011;22054;51.646;7.078;2022-11-15T03:13:33;17.05;;;15.38;;
35612;SDS011;22054;51.646;7.078;2022-11-15T03:16:40;17.65;;;16.13;;
35612;SDS011;22054;51.646;7.078;2022-11-15T03:19:31;17.35;;;15.55;;
35612;SDS011;22054;51.646;7.078;2022-11-15T03:22:06;16.38;;;14.93;;
35612;SDS011;22054;51.646;7.078;2022-11-15T03:24:36;15.68;;;14.38;;
35612;SDS011;22054;51.646;7.078;2022-11-15T03:27:04;16.73;;;15.18;;
35612;SDS011;22054;51.646;7.078;2022-11-15T03:29:42;16.52;;;15.23;;
35612;SDS011;22054;51.646;7.078;2022-11-15T03:32:19;16.42;;;14.75;;
35612;SDS011;22054;51.646;7.078;2022-11-15T03:35:27;16.25;;;14.95;;
35612;SDS011;22054;51.646;7.078;2022-11-15T03:37:55;16.52;;;14.95;;
35612;SDS011;22054;51.646;7.078;2022-11-15T03:40:34;18.10;;;15.27;;
35612;SDS011;22054;51.646;7.078;2022-11-15T03:45:46;17.95;;;15.68;;
35612;SDS011;22054;51.646;7.078;2022-11-15T03:48:30;18.15;;;16.33;;
35612;SDS011;22054;51.646;7.078;2022-11-15T03:51:03;18.05;;;16.05;;
35612;SDS011;22054;51.646;7.078;2022-11-15T03:53:29;16.98;;;15.38;;
35612;SDS011;22054;51.646;7.078;2022-11-15T03:55:56;17.25;;;15.82;;
35612;SDS011;22054;51.646;7.078;2022-11-15T03:58:22;17.05;;;15.55;;
35612;SDS011;22054;51.646;7.078;2022-11-15T04:00:48;18.05;;;16.33;;
35612;SDS011;22054;51.646;7.078;2022-11-15T04:03:14;17.05;;;15.45;;
35612;SDS011;22054;51.646;7.078;2022-11-15T04:05:40;16.85;;;15.35;;
35612;SDS011;22054;51.646;7.078;2022-11-15T04:08:05;18.02;;;16.27;;
35612;SDS011;22054;51.646;7.078;2022-11-15T04:10:31;16.50;;;14.80;;
35612;SDS011;22054;51.646;7.078;2022-11-15T04:12:57;15.98;;;14.60;;
35612;SDS011;22054;51.646;7.078;2022-11-15T04:15:23;17.35;;;15.65;;
35612;SDS011;22054;51.646;7.078;2022-11-15T04:17:53;18.90;;;15.23;;
35612;SDS011;22054;51.646;7.078;2022-11-15T04:20:22;18.27;;;16.15;;
35612;SDS011;22054;51.646;7.078;2022-11-15T04:23:13;18.25;;;16.63;;
35612;SDS011;22054;51.646;7.078;2022-11-15T04:26:08;17.23;;;15.75;;
35612;SDS011;22054;51.646;7.078;2022-11-15T04:28:40;17.88;;;16.15;;
35612;SDS011;22054;51.646;7.078;2022-11-15T04:31:25;17.75;;;16.23;;
35612;SDS011;22054;51.646;7.078;2022-11-15T04:33:51;17.48;;;15.95;;
35612;SDS011;22054;51.646;7.078;2022-11-15T04:36:17;17.08;;;15.45;;
35612;SDS011;22054;51.646;7.078;2022-11-15T04:39:02;16.95;;;15.45;;
35612;SDS011;22054;51.646;7.078;2022-11-15T04:41:28;16.08;;;14.68;;
35612;SDS011;22054;51.646;7.078;2022-11-15T04:43:54;16.67;;;15.13;;
35612;SDS011;22054;51.646;7.078;2022-11-15T04:46:20;16.83;;;15.30;;
35612;SDS011;22054;51.646;7.078;2022-11-15T04:48:47;16.48;;;14.85;;
35612;SDS011;22054;51.646;7.078;2022-11-15T04:51:13;17.75;;;16.13;;
35612;SDS011;22054;51.646;7.078;2022-11-15T04:53:39;16.83;;;14.98;;
35612;SDS011;22054;51.646;7.078;2022-11-15T04:56:04;16.90;;;15.32;;
35612;SDS011;22054;51.646;7.078;2022-11-15T04:58:33;17.52;;;15.93;;
35612;SDS011;22054;51.646;7.078;2022-11-15T05:01:06;17.63;;;15.88;;
35612;SDS011;22054;51.646;7.078;2022-11-15T05:03:38;17.88;;;16.02;;
35612;SDS011;22054;51.646;7.078;2022-11-15T05:06:23;16.20;;;14.75;;
35612;SDS011;22054;51.646;7.078;2022-11-15T05:08:49;17.17;;;15.68;;
35612;SDS011;22054;51.646;7.078;2022-11-15T05:11:14;17.05;;;15.55;;
35612;SDS011;22054;51.646;7.078;2022-11-15T05:13:40;16.70;;;15.25;;
35612;SDS011;22054;51.646;7.078;2022-11-15T05:16:06;17.35;;;15.82;;
35612;SDS011;22054;51.646;7.078;2022-11-15T05:18:32;16.80;;;15.40;;
35612;SDS011;22054;51.646;7.078;2022-11-15T05:21:05;16.48;;;14.90;;
35612;SDS011;22054;51.646;7.078;2022-11-15T05:23:33;14.75;;;13.45;;
35612;SDS011;22054;51.646;7.078;2022-11-15T05:26:01;16.95;;;15.52;;
35612;SDS011;22054;51.646;7.078;2022-11-15T05:28:29;16.08;;;14.63;;
35612;SDS011;22054;51.646;7.078;2022-11-15T05:31:03;15.52;;;14.20;;
35612;SDS011;22054;51.646;7.078;2022-11-15T05:33:38;15.63;;;14.30;;
35612;SDS011;22054;51.646;7.078;2022-11-15T05:39:01;14.93;;;13.68;;
35612;SDS011;22054;51.646;7.078;2022-11-15T05:41:31;15.82;;;14.32;;
35612;SDS011;22054;51.646;7.078;2022-11-15T05:44:05;14.45;;;13.20;;
35612;SDS011;22054;51.646;7.078;2022-11-15T05:46:35;14.73;;;13.38;;
35612;SDS011;22054;51.646;7.078;2022-11-15T05:49:03;14.70;;;13.32;;
35612;SDS011;22054;51.646;7.078;2022-11-15T05:51:37;15.52;;;14.27;;
35612;SDS011;22054;51.646;7.078;2022-11-15T05:54:05;15.88;;;14.68;;
35612;SDS011;22054;51.646;7.078;2022-11-15T05:56:30;15.60;;;14.18;;
35612;SDS011;22054;51.646;7.078;2022-11-15T05:58:57;15.27;;;13.98;;
35612;SDS011;22054;51.646;7.078;2022-11-15T06:01:25;16.17;;;14.80;;
35612;SDS011;22054;51.646;7.078;2022-11-15T06:03:52;18.02;;;16.10;;
35612;SDS011;22054;51.646;7.078;2022-11-15T06:06:18;15.95;;;14.63;;
35612;SDS011;22054;51.646;7.078;2022-11-15T06:08:44;18.02;;;15.60;;
35612;SDS011;22054;51.646;7.078;2022-11-15T06:11:10;16.73;;;15.27;;
35612;SDS011;22054;51.646;7.078;2022-11-15T06:13:35;16.15;;;14.77;;
35612;SDS011;22054;51.646;7.078;2022-11-15T06:16:01;16.40;;;15.10;;
35612;SDS011;22054;51.646;7.078;2022-11-15T06:18:27;15.85;;;14.45;;
35612;SDS011;22054;51.646;7.078;2022-11-15T06:20:53;16.25;;;14.93;;
35612;SDS011;22054;51.646;7.078;2022-11-15T06:23:19;17.58;;;16.00;;
35612;SDS011;22054;51.646;7.078;2022-11-15T06:25:44;17.13;;;15.77;;
35612;SDS011;22054;51.646;7.078;2022-11-15T06:28:10;17.98;;;16.48;;
35612;SDS011;22054;51.646;7.078;2022-11-15T06:30:36;18.35;;;16.42;;
35612;SDS011;22054;51.646;7.078;2022-11-15T06:33:02;17.58;;;16.25;;
35612;SDS011;22054;51.646;7.078;2022-11-15T06:35:32;19.23;;;17.50;;
35612;SDS011;22054;51.646;7.078;2022-11-15T06:38:06;18.45;;;16.75;;
35612;SDS011;22054;51.646;7.078;2022-11-15T06:40:34;18.10;;;16.63;;
35612;SDS011;22054;51.646;7.078;2022-11-15T06:43:02;18.55;;;17.02;;
35612;SDS011;22054;51.646;7.078;2022-11-15T06:45:29;17.60;;;16.10;;
35612;SDS011;22054;51.646;7.078;2022-11-15T06:47:55;18.42;;;16.63;;
35612;SDS011;22054;51.646;7.078;2022-11-15T06:50:21;19.25;;;17.45;;
35612;SDS011;22054;51.646;7.078;2022-11-15T06:52:47;17.75;;;16.13;;
35612;SDS011;22054;51.646;7.078;2022-11-15T06:55:12;16.58;;;15.18;;
35612;SDS011;22054;51.646;7.078;2022-11-15T06:57:45;18.38;;;16.65;;
35612;SDS011;22054;51.646;7.078;2022-11-15T07:00:16;17.05;;;15.55;;
35612;SDS011;22054;51.646;7.078;2022-11-15T07:02:59;17.02;;;15.57;;
35612;SDS011;22054;51.646;7.078;2022-11-15T07:05:26;16.42;;;15.02;;
35612;SDS011;22054;51.646;7.078;2022-11-15T07:07:52;16.63;;;15.32;;
35612;SDS011;22054;51.646;7.078;2022-11-15T07:10:20;16.15;;;14.73;;
35612;SDS011;22054;51.646;7.078;2022-11-15T07:12:47;16.38;;;14.98;;
35612;SDS011;22054;51.646;7.078;2022-11-15T07:15:14;15.77;;;14.32;;
35612;SDS011;22054;51.646;7.078;2022-11-15T07:17:41;15.35;;;14.05;;
35612;SDS011;22054;51.646;7.078;2022-11-15T07:20:07;15.32;;;14.13;;
35612;SDS011;22054;51.646;7.078;2022-11-15T07:22:34;14.70;;;13.60;;
35612;SDS011;22054;51.646;7.078;2022-11-15T07:24:59;14.13;;;13.02;;
35612;SDS011;22054;51.646;7.078;2022-11-15T07:27:25;13.10;;;12.00;;
35612;SDS011;22054;51.646;7.078;2022-11-15T07:29:51;13.85;;;12.65;;
35612;SDS011;22054;51.646;7.078;2022-11-15T07:32:17;13.75;;;12.75;;
35612;SDS011;22054;51.646;7.078;2022-11-15T07:34:42;13.77;;;12.63;;
35612;SDS011;22054;51.646;7.078;2022-11-15T07:37:10;13.23;;;12.15;;
35612;SDS011;22054;51.646;7.078;2022-11-15T07:39:36;13.40;;;12.10;;
35612;SDS011;22054;51.646;7.078;2022-11-15T07:42:02;14.13;;;13.02;;
35612;SDS011;22054;51.646;7.078;2022-11-15T07:44:47;14.52;;;13.25;;
35612;SDS011;22054;51.646;7.078;2022-11-15T07:47:12;14.07;;;12.88;;
35612;SDS011;22054;51.646;7.078;2022-11-15T07:49:38;14.02;;;12.68;;
35612;SDS011;22054;51.646;7.078;2022-11-15T07:52:04;13.50;;;12.52;;
35612;SDS011;22054;51.646;7.078;2022-11-15T07:54:30;14.38;;;13.07;;
35612;SDS011;22054;51.646;7.078;2022-11-15T07:56:55;13.13;;;12.23;;
35612;SDS011;22054;51.646;7.078;2022-11-15T07:59:21;12.68;;;11.50;;
35612;SDS011;22054;51.646;7.078;2022-11-15T08:01:47;13.18;;;12.18;;
35612;SDS011;22054;51.646;7.078;2022-11-15T08:04:13;11.93;;;11.02;;
35612;SDS011;22054;51.646;7.078;2022-11-15T08:06:38;12.30;;;11.30;;
35612;SDS011;22054;51.646;7.078;2022-11-15T08:09:04;11.30;;;10.50;;
35612;SDS011;22054;51.646;7.078;2022-11-15T08:11:33;12.52;;;11.27;;
35612;SDS011;22054;51.646;7.078;2022-11-15T08:13:59;10.95;;;10.15;;
35612;SDS011;22054;51.646;7.078;2022-11-15T08:16:24;10.52;;;9.73;;
35612;SDS011;22054;51.646;7.078;2022-11-15T08:18:50;10.95;;;10.13;;
35612;SDS011;22054;51.646;7.078;2022-11-15T08:21:18;10.55;;;9.85;;
35612;SDS011;22054;51.646;7.078;2022-11-15T08:23:45;11.20;;;10.32;;
35612;SDS011;22054;51.646;7.078;2022-11-15T08:26:14;11.00;;;10.13;;
35612;SDS011;22054;51.646;7.078;2022-11-15T08:28:40;10.65;;;10.00;;
35612;SDS011;22054;51.646;7.078;2022-11-15T08:31:06;11.02;;;10.23;;
35612;SDS011;22054;51.646;7.078;2022-11-15T08:33:38;11.50;;;10.55;;
35612;SDS011;22054;51.646;7.078;2022-11-15T08:36:04;10.70;;;10.00;;
35612;SDS011;22054;51.646;7.078;2022-11-15T08:38:30;10.85;;;10.00;;
35612;SDS011;22054;51.646;7.078;2022-11-15T08:41:00;11.10;;;10.20;;
35612;SDS011;22054;51.646;7.078;2022-11-15T08:43:28;10.40;;;9.70;;
35612;SDS011;22054;51.646;7.078;2022-11-15T08:45:57;10.38;;;9.88;;
35612;SDS011;22054;51.646;7.078;2022-11-15T08:48:23;11.93;;;10.68;;
35612;SDS011;22054;51.646;7.078;2022-11-15T08:50:53;9.32;;;8.80;;
35612;SDS011;22054;51.646;7.078;2022-11-15T08:53:21;10.18;;;9.57;;
35612;SDS011;22054;51.646;7.078;2022-11-15T08:55:47;11.10;;;10.45;;
35612;SDS011;22054;51.646;7.078;2022-11-15T08:58:13;10.73;;;10.13;;
35612;SDS011;22054;51.646;7.078;2022-11-15T09:00:39;10.00;;;9.30;;
35612;SDS011;22054;51.646;7.078;2022-11-15T09:03:05;10.45;;;9.85;;
35612;SDS011;22054;51.646;7.078;2022-11-15T09:05:31;10.82;;;10.13;;
35612;SDS011;22054;51.646;7.078;2022-11-15T09:08:00;10.70;;;10.10;;
35612;SDS011;22054;51.646;7.078;2022-11-15T09:10:26;9.93;;;9.43;;
35612;SDS011;22054;51.646;7.078;2022-11-15T09:12:52;10.25;;;9.45;;
35612;SDS011;22054;51.646;7.078;2022-11-15T09:15:17;10.02;;;9.40;;
35612;SDS011;22054;51.646;7.078;2022-11-15T09:17:44;11.07;;;10.30;;
35612;SDS011;22054;51.646;7.078;2022-11-15T09:20:10;9.57;;;8.88;;
35612;SDS011;22054;51.646;7.078;2022-11-15T09:22:36;9.38;;;8.85;;
35612;SDS011;22054;51.646;7.078;2022-11-15T09:25:03;9.40;;;8.80;;
35612;SDS011;22054;51.646;7.078;2022-11-15T09:27:30;9.70;;;9.13;;
35612;SDS011;22054;51.646;7.078;2022-11-15T09:29:56;10.45;;;9.77;;
35612;SDS011;22054;51.646;7.078;2022-11-15T09:32:22;11.13;;;10.40;;
35612;SDS011;22054;51.646;7.078;2022-11-15T09:34:48;10.55;;;9.80;;
35612;SDS011;22054;51.646;7.078;2022-11-15T09:37:15;10.10;;;9.50;;
35612;SDS011;22054;51.646;7.078;2022-11-15T09:39:41;9.13;;;8.63;;
35612;SDS011;22054;51.646;7.078;2022-11-15T09:42:10;10.48;;;9.65;;
35612;SDS011;22054;51.646;7.078;2022-11-15T09:44:59;10.32;;;9.38;;
35612;SDS011;22054;51.646;7.078;2022-11-15T09:50:44;10.85;;;10.00;;
35612;SDS011;22054;51.646;7.078;2022-11-15T09:53:14;11.18;;;10.52;;
35612;SDS011;22054;51.646;7.078;2022-11-15T09:55:58;12.13;;;10.93;;
35612;SDS011;22054;51.646;7.078;2022-11-15T10:01:06;10.75;;;10.00;;
35612;SDS011;22054;51.646;7.078;2022-11-15T10:03:53;9.98;;;9.13;;
35612;SDS011;22054;51.646;7.078;2022-11-15T10:06:23;8.70;;;8.10;;
35612;SDS011;22054;51.646;7.078;2022-11-15T10:08:54;8.15;;;7.65;;
35612;SDS011;22054;51.646;7.078;2022-11-15T10:11:29;8.00;;;7.40;;
35612;SDS011;22054;51.646;7.078;2022-11-15T10:14:02;8.00;;;7.50;;
35612;SDS011;22054;51.646;7.078;2022-11-15T10:19:54;7.25;;;6.72;;
35612;SDS011;22054;51.646;7.078;2022-11-15T10:27:45;8.00;;;7.40;;
35612;SDS011;22054;51.646;7.078;2022-11-15T10:30:19;7.30;;;6.90;;
35612;SDS011;22054;51.646;7.078;2022-11-15T10:32:45;6.88;;;6.47;;
35612;SDS011;22054;51.646;7.078;2022-11-15T10:35:26;6.78;;;6.40;;
35612;SDS011;22054;51.646;7.078;2022-11-15T10:38:04;7.95;;;7.28;;
35612;SDS011;22054;51.646;7.078;2022-11-15T10:40:33;7.55;;;7.05;;
35612;SDS011;22054;51.646;7.078;2022-11-15T10:43:12;7.00;;;6.60;;
35612;SDS011;22054;51.646;7.078;2022-11-15T10:45:45;7.60;;;7.00;;
35612;SDS011;22054;51.646;7.078;2022-11-15T10:50:37;7.20;;;6.55;;
35612;SDS011;22054;51.646;7.078;2022-11-15T10:55:49;8.65;;;7.00;;
35612;SDS011;22054;51.646;7.078;2022-11-15T11:01:09;7.00;;;6.50;;
35612;SDS011;22054;51.646;7.078;2022-11-15T11:03:37;7.13;;;6.57;;
35612;SDS011;22054;51.646;7.078;2022-11-15T11:06:15;6.47;;;5.97;;
35612;SDS011;22054;51.646;7.078;2022-11-15T11:08:56;6.80;;;6.30;;
35612;SDS011;22054;51.646;7.078;2022-11-15T11:11:46;7.05;;;6.53;;
35612;SDS011;22054;51.646;7.078;2022-11-15T11:14:32;7.53;;;6.85;;
35612;SDS011;22054;51.646;7.078;2022-11-15T11:20:14;6.80;;;6.40;;
35612;SDS011;22054;51.646;7.078;2022-11-15T11:23:17;6.88;;;6.38;;
35612;SDS011;22054;51.646;7.078;2022-11-15T11:29:04;7.43;;;6.75;;
35612;SDS011;22054;51.646;7.078;2022-11-15T11:32:08;7.85;;;7.05;;
35612;SDS011;22054;51.646;7.078;2022-11-15T11:49:49;7.65;;;7.05;;
35612;SDS011;22054;51.646;7.078;2022-11-15T12:06:16;7.03;;;6.53;;
35612;SDS011;22054;51.646;7.078;2022-11-15T12:08:53;7.28;;;6.63;;
35612;SDS011;22054;51.646;7.078;2022-11-15T12:11:46;8.98;;;7.20;;
35612;SDS011;22054;51.646;7.078;2022-11-15T12:17:00;6.97;;;6.30;;
35612;SDS011;22054;51.646;7.078;2022-11-15T12:19:26;7.63;;;6.97;;
35612;SDS011;22054;51.646;7.078;2022-11-15T12:22:13;7.35;;;6.80;;
35612;SDS011;22054;51.646;7.078;2022-11-15T12:25:41;7.13;;;6.70;;
35612;SDS011;22054;51.646;7.078;2022-11-15T12:28:03;7.35;;;6.70;;
35612;SDS011;22054;51.646;7.078;2022-11-15T12:31:24;7.22;;;6.82;;
35612;SDS011;22054;51.646;7.078;2022-11-15T12:34:28;7.45;;;6.82;;
35612;SDS011;22054;51.646;7.078;2022-11-15T12:40:04;7.10;;;6.60;;
35612;SDS011;22054;51.646;7.078;2022-11-15T12:45:42;7.22;;;6.70;;
35612;SDS011;22054;51.646;7.078;2022-11-15T12:53:29;11.88;;;6.00;;
35612;SDS011;22054;51.646;7.078;2022-11-15T12:58:45;7.00;;;6.38;;
35612;SDS011;22054;51.646;7.078;2022-11-15T13:06:58;6.75;;;6.35;;
35612;SDS011;22054;51.646;7.078;2022-11-15T13:15:07;6.90;;;6.30;;
35612;SDS011;22054;51.646;7.078;2022-11-15T13:18:30;6.88;;;6.03;;
35612;SDS011;22054;51.646;7.078;2022-11-15T13:21:00;5.90;;;5.60;;
35612;SDS011;22054;51.646;7.078;2022-11-15T13:23:51;6.07;;;5.63;;
35612;SDS011;22054;51.646;7.078;2022-11-15T13:26:19;6.40;;;6.00;;
35612;SDS011;22054;51.646;7.078;2022-11-15T13:28:46;6.80;;;6.30;;
35612;SDS011;22054;51.646;7.078;2022-11-15T13:33:54;6.80;;;6.20;;
35612;SDS011;22054;51.646;7.078;2022-11-15T13:36:25;7.18;;;6.68;;
35612;SDS011;22054;51.646;7.078;2022-11-15T13:39:06;6.95;;;6.45;;
35612;SDS011;22054;51.646;7.078;2022-11-15T13:41:55;6.68;;;6.38;;
35612;SDS011;22054;51.646;7.078;2022-11-15T13:44:32;7.22;;;6.63;;
35612;SDS011;22054;51.646;7.078;2022-11-15T13:47:14;6.35;;;6.00;;
35612;SDS011;22054;51.646;7.078;2022-11-15T13:49:52;7.05;;;6.40;;
35612;SDS011;22054;51.646;7.078;2022-11-15T13:52:18;6.93;;;6.30;;
35612;SDS011;22054;51.646;7.078;2022-11-15T13:54:57;6.43;;;6.00;;
35612;SDS011;22054;51.646;7.078;2022-11-15T13:57:48;6.70;;;6.30;;
35612;SDS011;22054;51.646;7.078;2022-11-15T14:00:43;6.82;;;6.38;;
35612;SDS011;22054;51.646;7.078;2022-11-15T14:03:21;6.68;;;6.15;;
35612;SDS011;22054;51.646;7.078;2022-11-15T14:06:12;6.72;;;6.32;;
35612;SDS011;22054;51.646;7.078;2022-11-15T14:15:01;7.10;;;6.50;;
35612;SDS011;22054;51.646;7.078;2022-11-15T14:17:50;7.10;;;6.60;;
35612;SDS011;22054;51.646;7.078;2022-11-15T14:20:36;6.32;;;5.93;;
35612;SDS011;22054;51.646;7.078;2022-11-15T14:25:55;6.07;;;5.78;;
35612;SDS011;22054;51.646;7.078;2022-11-15T14:30:48;7.00;;;6.43;;
35612;SDS011;22054;51.646;7.078;2022-11-15T14:36:12;10.85;;;8.20;;
35612;SDS011;22054;51.646;7.078;2022-11-15T14:38:41;7.15;;;6.47;;
35612;SDS011;22054;51.646;7.078;2022-11-15T14:41:16;6.78;;;6.30;;
35612;SDS011;22054;51.646;7.078;2022-11-15T14:43:46;7.90;;;7.28;;
35612;SDS011;22054;51.646;7.078;2022-11-15T14:46:12;6.15;;;5.75;;
35612;SDS011;22054;51.646;7.078;2022-11-15T14:48:38;6.95;;;6.38;;
35612;SDS011;22054;51.646;7.078;2022-11-15T14:51:09;6.75;;;6.22;;
35612;SDS011;22054;51.646;7.078;2022-11-15T14:53:44;7.35;;;6.57;;
35612;SDS011;22054;51.646;7.078;2022-11-15T14:56:23;9.82;;;7.25;;
35612;SDS011;22054;51.646;7.078;2022-11-15T14:58:51;7.60;;;6.95;;
35612;SDS011;22054;51.646;7.078;2022-11-15T15:01:21;7.35;;;6.65;;
35612;SDS011;22054;51.646;7.078;2022-11-15T15:03:51;6.70;;;6.10;;
35612;SDS011;22054;51.646;7.078;2022-11-15T15:06:20;7.18;;;6.53;;
35612;SDS011;22054;51.646;7.078;2022-11-15T15:12:19;6.82;;;5.95;;
35612;SDS011;22054;51.646;7.078;2022-11-15T15:14:51;6.97;;;6.38;;
35612;SDS011;22054;51.646;7.078;2022-11-15T15:17:17;8.20;;;7.55;;
35612;SDS011;22054;51.646;7.078;2022-11-15T15:27:31;9.70;;;7.70;;
35612;SDS011;22054;51.646;7.078;2022-11-15T15:31:08;7.50;;;7.10;;
35612;SDS011;22054;51.646;7.078;2022-11-15T15:33:43;8.57;;;7.20;;
35612;SDS011;22054;51.646;7.078;2022-11-15T15:39:52;7.90;;;7.30;;
35612;SDS011;22054;51.646;7.078;2022-11-15T15:42:22;7.75;;;7.15;;
35612;SDS011;22054;51.646;7.078;2022-11-15T15:45:00;8.55;;;7.95;;
35612;SDS011;22054;51.646;7.078;2022-11-15T15:57:43;9.55;;;8.00;;
35612;SDS011;22054;51.646;7.078;2022-11-15T16:02:45;9.57;;;8.30;;
35612;SDS011;22054;51.646;7.078;2022-11-15T16:05:12;8.88;;;8.20;;
35612;SDS011;22054;51.646;7.078;2022-11-15T16:07:38;8.18;;;7.68;;
35612;SDS011;22054;51.646;7.078;2022-11-15T16:10:47;8.85;;;8.00;;
35612;SDS011;22054;51.646;7.078;2022-11-15T16:13:01;9.13;;;8.32;;
35612;SDS011;22054;51.646;7.078;2022-11-15T16:15:29;8.68;;;8.02;;
35612;SDS011;22054;51.646;7.078;2022-11-15T16:17:57;10.65;;;8.15;;
35612;SDS011;22054;51.646;7.078;2022-11-15T16:20:38;8.10;;;7.50;;
35612;SDS011;22054;51.646;7.078;2022-11-15T16:23:10;9.90;;;8.15;;
35612;SDS011;22054;51.646;7.078;2022-11-15T16:25:45;8.48;;;7.63;;
35612;SDS011;22054;51.646;7.078;2022-11-15T16:30:43;8.10;;;7.50;;
35612;SDS011;22054;51.646;7.078;2022-11-15T16:33:09;9.70;;;8.05;;
35612;SDS011;22054;51.646;7.078;2022-11-15T16:35:35;9.30;;;8.52;;
35612;SDS011;22054;51.646;7.078;2022-11-15T16:38:00;12.88;;;8.60;;
35612;SDS011;22054;51.646;7.078;2022-11-15T16:40:30;12.15;;;8.68;;
35612;SDS011;22054;51.646;7.078;2022-11-15T16:42:58;9.32;;;8.40;;
35612;SDS011;22054;51.646;7.078;2022-11-15T16:45:26;9.85;;;8.48;;
35612;SDS011;22054;51.646;7.078;2022-11-15T16:47:53;9.25;;;8.63;;
35612;SDS011;22054;51.646;7.078;2022-11-15T16:50:21;9.02;;;8.23;;
35612;SDS011;22054;51.646;7.078;2022-11-15T16:52:53;9.65;;;8.48;;
35612;SDS011;22054;51.646;7.078;2022-11-15T16:55:25;9.20;;;8.60;;
35612;SDS011;22054;51.646;7.078;2022-11-15T16:57:53;8.98;;;8.38;;
35612;SDS011;22054;51.646;7.078;2022-11-15T17:00:22;10.10;;;9.10;;
35612;SDS011;22054;51.646;7.078;2022-11-15T17:02:49;9.95;;;9.15;;
35612;SDS011;22054;51.646;7.078;2022-11-15T17:05:19;9.70;;;8.88;;
35612;SDS011;22054;51.646;7.078;2022-11-15T17:07:48;9.30;;;8.57;;
35612;SDS011;22054;51.646;7.078;2022-11-15T17:10:18;9.90;;;8.90;;
35612;SDS011;22054;51.646;7.078;2022-11-15T17:12:46;9.98;;;9.18;;
35612;SDS011;22054;51.646;7.078;2022-11-15T17:15:12;9.63;;;8.77;;
35612;SDS011;22054;51.646;7.078;2022-11-15T17:17:38;10.55;;;9.80;;
35612;SDS011;22054;51.646;7.078;2022-11-15T17:20:05;9.80;;;9.18;;
35612;SDS011;22054;51.646;7.078;2022-11-15T17:22:37;11.05;;;10.13;;
35612;SDS011;22054;51.646;7.078;2022-11-15T17:25:03;10.25;;;9.40;;
35612;SDS011;22054;51.646;7.078;2022-11-15T17:27:30;9.82;;;9.20;;
35612;SDS011;22054;51.646;7.078;2022-11-15T17:29:56;10.85;;;9.90;;
35612;SDS011;22054;51.646;7.078;2022-11-15T17:32:22;10.38;;;9.48;;